sensor_id;sensor_type;location;lat;lon;timestamp;P1;durP1;ratioP1;P2;durP2;ratioP2
23555;SDS011;11956;53.184;8.578;2023-02-10T00:00:06;51.85;;;27.58;;
23555;SDS011;11956;53.184;8.578;2023-02-10T00:03:08;49.90;;;27.58;;
23555;SDS011;11956;53.184;8.578;2023-02-10T00:06:09;52.55;;;28.60;;
23555;SDS011;11956;53.184;8.578;2023-02-10T00:09:12;54.17;;;27.67;;
23555;SDS011;11956;53.184;8.578;2023-02-10T00:12:14;51.30;;;27.60;;
23555;SDS011;11956;53.184;8.578;2023-02-10T00:15:15;53.80;;;28.35;;
23555;SDS011;11956;53.184;8.578;2023-02-10T00:18:16;59.17;;;30.23;;
23555;SDS011;11956;53.184;8.578;2023-02-10T00:21:17;52.95;;;27.70;;
23555;SDS011;11956;53.184;8.578;2023-02-10T00:24:19;55.17;;;27.73;;
23555;SDS011;11956;53.184;8.578;2023-02-10T00:27:20;51.67;;;26.50;;
23555;SDS011;11956;53.184;8.578;2023-02-10T00:30:24;50.25;;;26.83;;
23555;SDS011;11956;53.184;8.578;2023-02-10T00:33:25;50.35;;;26.95;;
23555;SDS011;11956;53.184;8.578;2023-02-10T00:36:25;50.70;;;25.90;;
23555;SDS011;11956;53.184;8.578;2023-02-10T00:39:26;47.53;;;26.25;;
23555;SDS011;11956;53.184;8.578;2023-02-10T00:42:27;50.28;;;25.45;;
23555;SDS011;11956;53.184;8.578;2023-02-10T00:45:28;49.35;;;26.20;;
23555;SDS011;11956;53.184;8.578;2023-02-10T00:48:30;45.08;;;24.92;;
23555;SDS011;11956;53.184;8.578;2023-02-10T00:51:31;42.15;;;24.42;;
23555;SDS011;11956;53.184;8.578;2023-02-10T00:54:32;50.60;;;26.13;;
23555;SDS011;11956;53.184;8.578;2023-02-10T00:57:33;44.92;;;25.13;;
23555;SDS011;11956;53.184;8.578;2023-02-10T01:00:34;48.13;;;25.30;;
23555;SDS011;11956;53.184;8.578;2023-02-10T01:03:35;54.08;;;26.02;;
23555;SDS011;11956;53.184;8.578;2023-02-10T01:06:38;54.22;;;25.90;;
23555;SDS011;11956;53.184;8.578;2023-02-10T01:09:39;50.30;;;25.52;;
23555;SDS011;11956;53.184;8.578;2023-02-10T01:12:40;49.75;;;24.08;;
23555;SDS011;11956;53.184;8.578;2023-02-10T01:15:45;49.47;;;25.88;;
23555;SDS011;11956;53.184;8.578;2023-02-10T01:18:46;50.28;;;26.05;;
23555;SDS011;11956;53.184;8.578;2023-02-10T01:21:48;51.70;;;26.25;;
23555;SDS011;11956;53.184;8.578;2023-02-10T01:24:48;52.90;;;26.05;;
23555;SDS011;11956;53.184;8.578;2023-02-10T01:27:49;47.10;;;25.42;;
23555;SDS011;11956;53.184;8.578;2023-02-10T01:30:50;48.65;;;25.38;;
23555;SDS011;11956;53.184;8.578;2023-02-10T01:33:52;49.38;;;25.02;;
23555;SDS011;11956;53.184;8.578;2023-02-10T01:36:55;55.40;;;27.98;;
23555;SDS011;11956;53.184;8.578;2023-02-10T01:39:57;55.28;;;25.52;;
23555;SDS011;11956;53.184;8.578;2023-02-10T01:43:00;47.57;;;25.67;;
23555;SDS011;11956;53.184;8.578;2023-02-10T01:46:01;48.88;;;25.48;;
23555;SDS011;11956;53.184;8.578;2023-02-10T01:49:06;49.30;;;23.98;;
23555;SDS011;11956;53.184;8.578;2023-02-10T01:52:14;47.72;;;24.70;;
23555;SDS011;11956;53.184;8.578;2023-02-10T01:55:23;49.58;;;25.30;;
23555;SDS011;11956;53.184;8.578;2023-02-10T01:58:29;62.40;;;28.40;;
23555;SDS011;11956;53.184;8.578;2023-02-10T02:01:33;54.92;;;25.55;;
23555;SDS011;11956;53.184;8.578;2023-02-10T02:04:38;51.50;;;24.40;;
23555;SDS011;11956;53.184;8.578;2023-02-10T02:07:48;49.80;;;25.38;;
23555;SDS011;11956;53.184;8.578;2023-02-10T02:31:44;60.58;;;29.23;;
23555;SDS011;11956;53.184;8.578;2023-02-10T02:34:52;65.38;;;27.55;;
23555;SDS011;11956;53.184;8.578;2023-02-10T02:38:20;57.38;;;27.08;;
23555;SDS011;11956;53.184;8.578;2023-02-10T02:41:22;58.83;;;27.83;;
23555;SDS011;11956;53.184;8.578;2023-02-10T02:44:24;50.72;;;25.20;;
23555;SDS011;11956;53.184;8.578;2023-02-10T02:57:34;55.05;;;26.83;;
23555;SDS011;11956;53.184;8.578;2023-02-10T03:01:13;60.63;;;29.13;;
23555;SDS011;11956;53.184;8.578;2023-02-10T03:04:21;58.15;;;27.92;;
23555;SDS011;11956;53.184;8.578;2023-02-10T03:07:23;65.63;;;29.50;;
23555;SDS011;11956;53.184;8.578;2023-02-10T03:10:24;64.57;;;29.70;;
23555;SDS011;11956;53.184;8.578;2023-02-10T03:13:25;68.10;;;30.88;;
23555;SDS011;11956;53.184;8.578;2023-02-10T03:16:26;66.35;;;29.30;;
23555;SDS011;11956;53.184;8.578;2023-02-10T03:19:27;60.33;;;30.40;;
23555;SDS011;11956;53.184;8.578;2023-02-10T03:22:28;58.10;;;28.83;;
23555;SDS011;11956;53.184;8.578;2023-02-10T03:25:28;74.32;;;33.30;;
23555;SDS011;11956;53.184;8.578;2023-02-10T03:28:29;66.65;;;30.40;;
23555;SDS011;11956;53.184;8.578;2023-02-10T03:31:30;56.15;;;28.73;;
23555;SDS011;11956;53.184;8.578;2023-02-10T03:34:31;65.15;;;30.13;;
23555;SDS011;11956;53.184;8.578;2023-02-10T03:37:32;65.53;;;31.55;;
23555;SDS011;11956;53.184;8.578;2023-02-10T03:40:33;64.57;;;29.65;;
23555;SDS011;11956;53.184;8.578;2023-02-10T03:43:34;51.15;;;27.55;;
23555;SDS011;11956;53.184;8.578;2023-02-10T03:46:35;60.15;;;31.15;;
23555;SDS011;11956;53.184;8.578;2023-02-10T03:49:36;61.20;;;30.63;;
23555;SDS011;11956;53.184;8.578;2023-02-10T03:52:37;66.65;;;30.88;;
23555;SDS011;11956;53.184;8.578;2023-02-10T03:55:38;65.55;;;29.60;;
23555;SDS011;11956;53.184;8.578;2023-02-10T03:58:39;58.33;;;29.08;;
23555;SDS011;11956;53.184;8.578;2023-02-10T04:01:40;70.63;;;31.27;;
23555;SDS011;11956;53.184;8.578;2023-02-10T04:04:41;61.78;;;29.60;;
23555;SDS011;11956;53.184;8.578;2023-02-10T04:07:41;60.42;;;29.77;;
23555;SDS011;11956;53.184;8.578;2023-02-10T04:10:42;61.08;;;30.15;;
23555;SDS011;11956;53.184;8.578;2023-02-10T04:13:43;53.47;;;28.48;;
23555;SDS011;11956;53.184;8.578;2023-02-10T04:16:44;66.63;;;28.35;;
23555;SDS011;11956;53.184;8.578;2023-02-10T04:19:45;63.05;;;29.58;;
23555;SDS011;11956;53.184;8.578;2023-02-10T04:22:45;58.10;;;28.73;;
23555;SDS011;11956;53.184;8.578;2023-02-10T04:25:46;62.10;;;28.40;;
23555;SDS011;11956;53.184;8.578;2023-02-10T04:28:48;67.00;;;32.50;;
23555;SDS011;11956;53.184;8.578;2023-02-10T04:31:49;70.47;;;31.50;;
23555;SDS011;11956;53.184;8.578;2023-02-10T04:34:50;78.30;;;32.83;;
23555;SDS011;11956;53.184;8.578;2023-02-10T04:37:50;64.80;;;29.55;;
23555;SDS011;11956;53.184;8.578;2023-02-10T04:40:51;66.45;;;31.52;;
23555;SDS011;11956;53.184;8.578;2023-02-10T04:43:52;68.15;;;28.63;;
23555;SDS011;11956;53.184;8.578;2023-02-10T04:46:53;65.68;;;29.65;;
23555;SDS011;11956;53.184;8.578;2023-02-10T04:49:54;68.30;;;30.08;;
23555;SDS011;11956;53.184;8.578;2023-02-10T04:52:55;64.60;;;29.77;;
23555;SDS011;11956;53.184;8.578;2023-02-10T04:55:56;64.10;;;30.65;;
23555;SDS011;11956;53.184;8.578;2023-02-10T04:58:56;53.95;;;28.83;;
23555;SDS011;11956;53.184;8.578;2023-02-10T05:01:57;67.30;;;30.77;;
23555;SDS011;11956;53.184;8.578;2023-02-10T05:04:58;63.25;;;31.50;;
23555;SDS011;11956;53.184;8.578;2023-02-10T05:07:59;66.47;;;30.38;;
23555;SDS011;11956;53.184;8.578;2023-02-10T05:11:00;61.63;;;30.13;;
23555;SDS011;11956;53.184;8.578;2023-02-10T05:14:01;71.07;;;31.67;;
23555;SDS011;11956;53.184;8.578;2023-02-10T05:17:02;66.57;;;32.00;;
23555;SDS011;11956;53.184;8.578;2023-02-10T05:20:03;70.88;;;30.45;;
23555;SDS011;11956;53.184;8.578;2023-02-10T05:23:04;67.47;;;31.95;;
23555;SDS011;11956;53.184;8.578;2023-02-10T05:26:06;66.20;;;31.90;;
23555;SDS011;11956;53.184;8.578;2023-02-10T05:29:07;63.40;;;29.38;;
23555;SDS011;11956;53.184;8.578;2023-02-10T05:32:08;73.93;;;31.77;;
23555;SDS011;11956;53.184;8.578;2023-02-10T05:35:09;68.20;;;32.30;;
23555;SDS011;11956;53.184;8.578;2023-02-10T05:38:10;65.40;;;28.20;;
23555;SDS011;11956;53.184;8.578;2023-02-10T05:41:10;69.00;;;31.60;;
23555;SDS011;11956;53.184;8.578;2023-02-10T05:44:12;60.97;;;30.83;;
23555;SDS011;11956;53.184;8.578;2023-02-10T05:47:13;66.93;;;31.15;;
23555;SDS011;11956;53.184;8.578;2023-02-10T05:50:15;66.63;;;32.40;;
23555;SDS011;11956;53.184;8.578;2023-02-10T05:53:16;74.45;;;34.55;;
23555;SDS011;11956;53.184;8.578;2023-02-10T05:56:17;66.20;;;32.55;;
23555;SDS011;11956;53.184;8.578;2023-02-10T05:59:18;63.70;;;31.10;;
23555;SDS011;11956;53.184;8.578;2023-02-10T06:02:19;70.72;;;31.73;;
23555;SDS011;11956;53.184;8.578;2023-02-10T06:05:20;63.95;;;31.33;;
23555;SDS011;11956;53.184;8.578;2023-02-10T06:08:20;61.28;;;31.30;;
23555;SDS011;11956;53.184;8.578;2023-02-10T06:11:21;78.10;;;33.38;;
23555;SDS011;11956;53.184;8.578;2023-02-10T06:14:22;67.43;;;32.05;;
23555;SDS011;11956;53.184;8.578;2023-02-10T06:17:23;64.03;;;31.90;;
23555;SDS011;11956;53.184;8.578;2023-02-10T06:20:26;67.18;;;33.63;;
23555;SDS011;11956;53.184;8.578;2023-02-10T06:23:26;74.07;;;33.28;;
23555;SDS011;11956;53.184;8.578;2023-02-10T06:26:27;71.30;;;32.65;;
23555;SDS011;11956;53.184;8.578;2023-02-10T06:29:28;66.65;;;31.33;;
23555;SDS011;11956;53.184;8.578;2023-02-10T06:32:29;72.50;;;32.78;;
23555;SDS011;11956;53.184;8.578;2023-02-10T06:35:30;84.97;;;35.88;;
23555;SDS011;11956;53.184;8.578;2023-02-10T06:38:31;70.75;;;32.63;;
23555;SDS011;11956;53.184;8.578;2023-02-10T06:41:33;72.72;;;34.03;;
23555;SDS011;11956;53.184;8.578;2023-02-10T06:44:34;64.70;;;32.08;;
23555;SDS011;11956;53.184;8.578;2023-02-10T06:47:35;76.38;;;34.88;;
23555;SDS011;11956;53.184;8.578;2023-02-10T06:50:36;75.30;;;35.30;;
23555;SDS011;11956;53.184;8.578;2023-02-10T06:53:38;70.65;;;31.67;;
23555;SDS011;11956;53.184;8.578;2023-02-10T06:56:39;65.18;;;31.83;;
23555;SDS011;11956;53.184;8.578;2023-02-10T06:59:41;74.85;;;35.28;;
23555;SDS011;11956;53.184;8.578;2023-02-10T07:02:42;61.28;;;30.75;;
23555;SDS011;11956;53.184;8.578;2023-02-10T07:05:43;62.28;;;33.50;;
23555;SDS011;11956;53.184;8.578;2023-02-10T07:08:44;74.75;;;34.45;;
23555;SDS011;11956;53.184;8.578;2023-02-10T07:11:46;76.60;;;34.72;;
23555;SDS011;11956;53.184;8.578;2023-02-10T07:14:47;63.28;;;33.00;;
23555;SDS011;11956;53.184;8.578;2023-02-10T07:17:49;71.05;;;33.67;;
23555;SDS011;11956;53.184;8.578;2023-02-10T07:20:51;66.60;;;32.95;;
23555;SDS011;11956;53.184;8.578;2023-02-10T07:23:52;60.58;;;31.25;;
23555;SDS011;11956;53.184;8.578;2023-02-10T07:26:52;64.50;;;33.58;;
23555;SDS011;11956;53.184;8.578;2023-02-10T07:29:53;65.82;;;32.65;;
23555;SDS011;11956;53.184;8.578;2023-02-10T07:32:54;61.30;;;32.15;;
23555;SDS011;11956;53.184;8.578;2023-02-10T07:35:58;70.38;;;33.30;;
23555;SDS011;11956;53.184;8.578;2023-02-10T07:39:01;64.35;;;32.45;;
23555;SDS011;11956;53.184;8.578;2023-02-10T07:42:02;53.17;;;31.20;;
23555;SDS011;11956;53.184;8.578;2023-02-10T07:45:22;51.38;;;28.25;;
23555;SDS011;11956;53.184;8.578;2023-02-10T07:48:23;43.67;;;26.10;;
23555;SDS011;11956;53.184;8.578;2023-02-10T07:51:24;47.88;;;24.40;;
23555;SDS011;11956;53.184;8.578;2023-02-10T07:54:25;37.83;;;20.17;;
23555;SDS011;11956;53.184;8.578;2023-02-10T07:57:26;35.30;;;20.58;;
23555;SDS011;11956;53.184;8.578;2023-02-10T08:00:27;32.70;;;19.30;;
23555;SDS011;11956;53.184;8.578;2023-02-10T08:03:28;30.75;;;16.60;;
23555;SDS011;11956;53.184;8.578;2023-02-10T08:06:29;28.63;;;15.50;;
23555;SDS011;11956;53.184;8.578;2023-02-10T08:09:30;26.80;;;13.52;;
23555;SDS011;11956;53.184;8.578;2023-02-10T08:12:34;25.40;;;13.35;;
23555;SDS011;11956;53.184;8.578;2023-02-10T08:15:35;25.58;;;12.75;;
23555;SDS011;11956;53.184;8.578;2023-02-10T08:18:39;27.27;;;13.05;;
23555;SDS011;11956;53.184;8.578;2023-02-10T08:21:41;28.27;;;13.30;;
23555;SDS011;11956;53.184;8.578;2023-02-10T08:24:41;20.13;;;11.35;;
23555;SDS011;11956;53.184;8.578;2023-02-10T08:27:43;27.10;;;11.88;;
23555;SDS011;11956;53.184;8.578;2023-02-10T08:30:44;27.33;;;12.95;;
23555;SDS011;11956;53.184;8.578;2023-02-10T08:33:45;24.52;;;11.70;;
23555;SDS011;11956;53.184;8.578;2023-02-10T08:36:45;23.98;;;12.18;;
23555;SDS011;11956;53.184;8.578;2023-02-10T08:39:47;24.23;;;11.23;;
23555;SDS011;11956;53.184;8.578;2023-02-10T08:42:47;25.55;;;11.52;;
23555;SDS011;11956;53.184;8.578;2023-02-10T08:45:48;20.20;;;11.65;;
23555;SDS011;11956;53.184;8.578;2023-02-10T08:48:49;25.10;;;12.23;;
23555;SDS011;11956;53.184;8.578;2023-02-10T08:51:51;24.55;;;11.60;;
23555;SDS011;11956;53.184;8.578;2023-02-10T08:54:52;18.75;;;11.07;;
23555;SDS011;11956;53.184;8.578;2023-02-10T08:57:53;20.77;;;10.77;;
23555;SDS011;11956;53.184;8.578;2023-02-10T09:00:54;24.98;;;11.77;;
23555;SDS011;11956;53.184;8.578;2023-02-10T09:03:55;20.17;;;10.75;;
23555;SDS011;11956;53.184;8.578;2023-02-10T09:06:57;19.40;;;11.25;;
23555;SDS011;11956;53.184;8.578;2023-02-10T09:09:58;22.70;;;11.07;;
23555;SDS011;11956;53.184;8.578;2023-02-10T09:12:59;23.30;;;10.82;;
23555;SDS011;11956;53.184;8.578;2023-02-10T09:15:59;21.60;;;11.48;;
23555;SDS011;11956;53.184;8.578;2023-02-10T09:19:00;21.63;;;11.05;;
23555;SDS011;11956;53.184;8.578;2023-02-10T09:22:02;18.40;;;9.90;;
23555;SDS011;11956;53.184;8.578;2023-02-10T09:25:04;20.97;;;10.77;;
23555;SDS011;11956;53.184;8.578;2023-02-10T09:28:05;19.80;;;10.40;;
23555;SDS011;11956;53.184;8.578;2023-02-10T09:31:07;18.13;;;9.45;;
23555;SDS011;11956;53.184;8.578;2023-02-10T09:34:09;18.80;;;9.98;;
23555;SDS011;11956;53.184;8.578;2023-02-10T09:37:10;19.60;;;9.80;;
23555;SDS011;11956;53.184;8.578;2023-02-10T09:40:16;22.15;;;10.85;;
23555;SDS011;11956;53.184;8.578;2023-02-10T09:43:37;20.10;;;10.40;;
23555;SDS011;11956;53.184;8.578;2023-02-10T09:50:30;17.98;;;9.90;;
23555;SDS011;11956;53.184;8.578;2023-02-10T09:53:44;18.60;;;10.32;;
23555;SDS011;11956;53.184;8.578;2023-02-10T09:56:45;19.85;;;10.60;;
23555;SDS011;11956;53.184;8.578;2023-02-10T09:59:48;20.65;;;11.00;;
23555;SDS011;11956;53.184;8.578;2023-02-10T10:02:55;17.80;;;10.15;;
23555;SDS011;11956;53.184;8.578;2023-02-10T10:06:14;20.92;;;9.93;;
23555;SDS011;11956;53.184;8.578;2023-02-10T10:09:30;28.52;;;10.88;;
23555;SDS011;11956;53.184;8.578;2023-02-10T10:12:40;23.77;;;11.40;;
23555;SDS011;11956;53.184;8.578;2023-02-10T10:15:50;20.80;;;11.45;;
23555;SDS011;11956;53.184;8.578;2023-02-10T10:26:35;24.05;;;10.73;;
23555;SDS011;11956;53.184;8.578;2023-02-10T10:30:19;16.23;;;9.70;;
23555;SDS011;11956;53.184;8.578;2023-02-10T10:33:54;20.75;;;10.25;;
23555;SDS011;11956;53.184;8.578;2023-02-10T10:37:05;19.90;;;10.90;;
23555;SDS011;11956;53.184;8.578;2023-02-10T10:40:25;19.08;;;10.48;;
23555;SDS011;11956;53.184;8.578;2023-02-10T10:43:31;21.05;;;11.23;;
23555;SDS011;11956;53.184;8.578;2023-02-10T10:46:47;22.70;;;11.48;;
23555;SDS011;11956;53.184;8.578;2023-02-10T10:49:59;22.00;;;12.32;;
23555;SDS011;11956;53.184;8.578;2023-02-10T10:53:01;24.05;;;11.23;;
23555;SDS011;11956;53.184;8.578;2023-02-10T10:59:45;22.15;;;11.82;;
23555;SDS011;11956;53.184;8.578;2023-02-10T11:02:56;27.45;;;13.98;;
23555;SDS011;11956;53.184;8.578;2023-02-10T11:06:14;23.85;;;12.32;;
23555;SDS011;11956;53.184;8.578;2023-02-10T11:09:26;36.83;;;14.38;;
23555;SDS011;11956;53.184;8.578;2023-02-10T11:12:37;30.05;;;14.27;;
23555;SDS011;11956;53.184;8.578;2023-02-10T11:15:41;31.15;;;14.15;;
23555;SDS011;11956;53.184;8.578;2023-02-10T11:18:59;27.77;;;14.40;;
23555;SDS011;11956;53.184;8.578;2023-02-10T11:22:02;28.08;;;15.25;;
23555;SDS011;11956;53.184;8.578;2023-02-10T11:25:33;28.38;;;13.80;;
23555;SDS011;11956;53.184;8.578;2023-02-10T11:28:36;26.77;;;15.68;;
23555;SDS011;11956;53.184;8.578;2023-02-10T11:31:37;31.38;;;15.00;;
23555;SDS011;11956;53.184;8.578;2023-02-10T11:34:47;26.10;;;14.70;;
23555;SDS011;11956;53.184;8.578;2023-02-10T11:38:02;31.10;;;15.15;;
23555;SDS011;11956;53.184;8.578;2023-02-10T11:41:08;29.10;;;15.00;;
23555;SDS011;11956;53.184;8.578;2023-02-10T11:47:26;24.85;;;14.20;;
23555;SDS011;11956;53.184;8.578;2023-02-10T11:50:33;27.00;;;13.88;;
23555;SDS011;11956;53.184;8.578;2023-02-10T11:53:36;29.35;;;15.52;;
23555;SDS011;11956;53.184;8.578;2023-02-10T11:56:41;27.55;;;14.20;;
23555;SDS011;11956;53.184;8.578;2023-02-10T12:00:44;30.83;;;15.43;;
23555;SDS011;11956;53.184;8.578;2023-02-10T12:04:03;35.83;;;16.27;;
23555;SDS011;11956;53.184;8.578;2023-02-10T12:11:16;30.83;;;14.68;;
23555;SDS011;11956;53.184;8.578;2023-02-10T12:14:21;29.55;;;15.20;;
23555;SDS011;11956;53.184;8.578;2023-02-10T12:21:40;27.80;;;14.70;;
23555;SDS011;11956;53.184;8.578;2023-02-10T12:28:33;28.77;;;14.85;;
23555;SDS011;11956;53.184;8.578;2023-02-10T12:31:45;32.08;;;14.60;;
23555;SDS011;11956;53.184;8.578;2023-02-10T12:45:51;25.13;;;14.48;;
23555;SDS011;11956;53.184;8.578;2023-02-10T12:49:16;33.63;;;15.98;;
23555;SDS011;11956;53.184;8.578;2023-02-10T12:52:48;32.45;;;16.25;;
23555;SDS011;11956;53.184;8.578;2023-02-10T12:56:04;32.53;;;16.25;;
23555;SDS011;11956;53.184;8.578;2023-02-10T12:59:26;31.65;;;15.95;;
23555;SDS011;11956;53.184;8.578;2023-02-10T13:05:52;38.40;;;15.57;;
23555;SDS011;11956;53.184;8.578;2023-02-10T13:13:17;32.05;;;16.30;;
23555;SDS011;11956;53.184;8.578;2023-02-10T13:16:24;33.00;;;15.82;;
23555;SDS011;11956;53.184;8.578;2023-02-10T13:19:50;27.70;;;15.70;;
23555;SDS011;11956;53.184;8.578;2023-02-10T13:23:31;30.38;;;15.95;;
23555;SDS011;11956;53.184;8.578;2023-02-10T13:26:54;34.15;;;17.25;;
23555;SDS011;11956;53.184;8.578;2023-02-10T13:34:18;32.95;;;16.60;;
23555;SDS011;11956;53.184;8.578;2023-02-10T13:40:52;31.83;;;14.68;;
23555;SDS011;11956;53.184;8.578;2023-02-10T13:44:25;28.48;;;15.48;;
23555;SDS011;11956;53.184;8.578;2023-02-10T13:47:37;28.17;;;14.73;;
23555;SDS011;11956;53.184;8.578;2023-02-10T13:50:49;26.40;;;14.68;;
23555;SDS011;11956;53.184;8.578;2023-02-10T13:53:53;34.00;;;15.45;;
23555;SDS011;11956;53.184;8.578;2023-02-10T13:56:55;31.55;;;16.00;;
23555;SDS011;11956;53.184;8.578;2023-02-10T14:00:05;28.75;;;15.48;;
23555;SDS011;11956;53.184;8.578;2023-02-10T14:09:35;26.88;;;13.52;;
23555;SDS011;11956;53.184;8.578;2023-02-10T14:12:37;25.80;;;12.68;;
23555;SDS011;11956;53.184;8.578;2023-02-10T14:15:40;27.95;;;13.15;;
23555;SDS011;11956;53.184;8.578;2023-02-10T14:18:44;25.83;;;12.27;;
23555;SDS011;11956;53.184;8.578;2023-02-10T14:21:46;27.05;;;13.35;;
23555;SDS011;11956;53.184;8.578;2023-02-10T14:24:48;27.08;;;12.20;;
23555;SDS011;11956;53.184;8.578;2023-02-10T14:27:50;28.35;;;12.45;;
23555;SDS011;11956;53.184;8.578;2023-02-10T14:30:57;26.60;;;11.95;;
23555;SDS011;11956;53.184;8.578;2023-02-10T14:34:05;23.23;;;11.57;;
23555;SDS011;11956;53.184;8.578;2023-02-10T14:37:18;26.73;;;12.10;;
23555;SDS011;11956;53.184;8.578;2023-02-10T14:40:22;27.35;;;13.32;;
23555;SDS011;11956;53.184;8.578;2023-02-10T14:43:27;23.15;;;11.80;;
23555;SDS011;11956;53.184;8.578;2023-02-10T14:46:31;26.20;;;12.07;;
23555;SDS011;11956;53.184;8.578;2023-02-10T14:49:33;21.90;;;11.00;;
23555;SDS011;11956;53.184;8.578;2023-02-10T14:52:36;25.20;;;10.82;;
23555;SDS011;11956;53.184;8.578;2023-02-10T14:55:47;21.00;;;10.35;;
23555;SDS011;11956;53.184;8.578;2023-02-10T14:58:58;23.08;;;10.38;;
23555;SDS011;11956;53.184;8.578;2023-02-10T15:01:59;21.77;;;10.68;;
23555;SDS011;11956;53.184;8.578;2023-02-10T15:05:07;23.60;;;10.88;;
23555;SDS011;11956;53.184;8.578;2023-02-10T15:08:19;21.75;;;10.05;;
23555;SDS011;11956;53.184;8.578;2023-02-10T15:11:47;19.58;;;9.05;;
23555;SDS011;11956;53.184;8.578;2023-02-10T15:18:14;22.10;;;9.43;;
23555;SDS011;11956;53.184;8.578;2023-02-10T15:21:23;23.10;;;11.02;;
23555;SDS011;11956;53.184;8.578;2023-02-10T15:24:32;20.88;;;11.15;;
23555;SDS011;11956;53.184;8.578;2023-02-10T15:27:34;24.38;;;10.73;;
23555;SDS011;11956;53.184;8.578;2023-02-10T15:30:44;23.60;;;10.75;;
23555;SDS011;11956;53.184;8.578;2023-02-10T15:33:59;23.70;;;11.20;;
23555;SDS011;11956;53.184;8.578;2023-02-10T15:37:04;20.67;;;10.23;;
23555;SDS011;11956;53.184;8.578;2023-02-10T15:40:22;23.58;;;11.18;;
23555;SDS011;11956;53.184;8.578;2023-02-10T15:43:27;25.92;;;10.77;;
23555;SDS011;11956;53.184;8.578;2023-02-10T15:46:48;24.67;;;12.00;;
23555;SDS011;11956;53.184;8.578;2023-02-10T15:50:16;24.25;;;11.27;;
23555;SDS011;11956;53.184;8.578;2023-02-10T15:53:18;27.42;;;12.18;;
23555;SDS011;11956;53.184;8.578;2023-02-10T15:56:24;27.80;;;12.45;;
23555;SDS011;11956;53.184;8.578;2023-02-10T15:59:25;28.58;;;11.82;;
23555;SDS011;11956;53.184;8.578;2023-02-10T16:02:30;20.63;;;11.48;;
23555;SDS011;11956;53.184;8.578;2023-02-10T16:05:31;23.23;;;12.23;;
23555;SDS011;11956;53.184;8.578;2023-02-10T16:08:35;21.08;;;11.52;;
23555;SDS011;11956;53.184;8.578;2023-02-10T16:11:36;29.15;;;13.25;;
23555;SDS011;11956;53.184;8.578;2023-02-10T16:14:37;29.38;;;12.57;;
23555;SDS011;11956;53.184;8.578;2023-02-10T16:17:38;25.63;;;12.75;;
23555;SDS011;11956;53.184;8.578;2023-02-10T16:20:42;26.05;;;11.57;;
23555;SDS011;11956;53.184;8.578;2023-02-10T16:23:43;27.77;;;12.93;;
23555;SDS011;11956;53.184;8.578;2023-02-10T16:26:44;28.70;;;12.38;;
23555;SDS011;11956;53.184;8.578;2023-02-10T16:29:47;27.38;;;12.75;;
23555;SDS011;11956;53.184;8.578;2023-02-10T16:32:48;28.33;;;13.10;;
23555;SDS011;11956;53.184;8.578;2023-02-10T16:35:49;29.17;;;13.15;;
23555;SDS011;11956;53.184;8.578;2023-02-10T16:38:49;30.77;;;13.55;;
23555;SDS011;11956;53.184;8.578;2023-02-10T16:41:51;30.80;;;14.80;;
23555;SDS011;11956;53.184;8.578;2023-02-10T16:44:53;30.77;;;13.50;;
23555;SDS011;11956;53.184;8.578;2023-02-10T16:47:54;28.08;;;13.60;;
23555;SDS011;11956;53.184;8.578;2023-02-10T16:50:56;26.20;;;13.48;;
23555;SDS011;11956;53.184;8.578;2023-02-10T16:53:57;25.98;;;12.93;;
23555;SDS011;11956;53.184;8.578;2023-02-10T16:56:57;26.70;;;13.57;;
23555;SDS011;11956;53.184;8.578;2023-02-10T16:59:58;26.88;;;13.57;;
23555;SDS011;11956;53.184;8.578;2023-02-10T17:03:01;27.00;;;13.18;;
23555;SDS011;11956;53.184;8.578;2023-02-10T17:06:02;30.58;;;14.52;;
23555;SDS011;11956;53.184;8.578;2023-02-10T17:09:04;38.60;;;15.38;;
23555;SDS011;11956;53.184;8.578;2023-02-10T17:12:04;32.85;;;14.85;;
23555;SDS011;11956;53.184;8.578;2023-02-10T17:15:06;30.00;;;14.60;;
23555;SDS011;11956;53.184;8.578;2023-02-10T17:18:07;31.83;;;15.50;;
23555;SDS011;11956;53.184;8.578;2023-02-10T17:21:09;32.22;;;15.43;;
23555;SDS011;11956;53.184;8.578;2023-02-10T17:24:10;36.40;;;16.65;;
23555;SDS011;11956;53.184;8.578;2023-02-10T17:27:11;35.85;;;15.73;;
23555;SDS011;11956;53.184;8.578;2023-02-10T17:30:13;34.78;;;16.42;;
23555;SDS011;11956;53.184;8.578;2023-02-10T17:33:24;36.38;;;17.33;;
23555;SDS011;11956;53.184;8.578;2023-02-10T17:36:27;36.83;;;16.25;;
23555;SDS011;11956;53.184;8.578;2023-02-10T17:39:28;36.35;;;17.40;;
23555;SDS011;11956;53.184;8.578;2023-02-10T17:42:32;41.15;;;17.25;;
23555;SDS011;11956;53.184;8.578;2023-02-10T17:45:33;44.42;;;20.02;;
23555;SDS011;11956;53.184;8.578;2023-02-10T17:48:37;39.92;;;18.70;;
23555;SDS011;11956;53.184;8.578;2023-02-10T17:51:38;49.75;;;20.58;;
23555;SDS011;11956;53.184;8.578;2023-02-10T17:54:39;44.17;;;18.83;;
23555;SDS011;11956;53.184;8.578;2023-02-10T17:57:40;42.83;;;19.00;;
23555;SDS011;11956;53.184;8.578;2023-02-10T18:00:41;43.72;;;18.67;;
23555;SDS011;11956;53.184;8.578;2023-02-10T18:03:42;48.85;;;19.45;;
23555;SDS011;11956;53.184;8.578;2023-02-10T18:06:43;42.67;;;18.67;;
23555;SDS011;11956;53.184;8.578;2023-02-10T18:09:44;48.10;;;19.77;;
23555;SDS011;11956;53.184;8.578;2023-02-10T18:12:45;44.50;;;19.83;;
23555;SDS011;11956;53.184;8.578;2023-02-10T18:15:46;45.03;;;19.55;;
23555;SDS011;11956;53.184;8.578;2023-02-10T18:18:47;54.67;;;21.75;;
23555;SDS011;11956;53.184;8.578;2023-02-10T18:21:48;47.38;;;19.70;;
23555;SDS011;11956;53.184;8.578;2023-02-10T18:24:49;46.80;;;20.70;;
23555;SDS011;11956;53.184;8.578;2023-02-10T18:27:50;54.05;;;21.13;;
23555;SDS011;11956;53.184;8.578;2023-02-10T18:30:52;59.22;;;21.73;;
23555;SDS011;11956;53.184;8.578;2023-02-10T18:33:54;52.70;;;22.52;;
23555;SDS011;11956;53.184;8.578;2023-02-10T18:36:56;52.75;;;21.90;;
23555;SDS011;11956;53.184;8.578;2023-02-10T18:39:57;54.67;;;22.20;;
23555;SDS011;11956;53.184;8.578;2023-02-10T18:42:59;55.95;;;22.08;;
23555;SDS011;11956;53.184;8.578;2023-02-10T18:46:00;58.28;;;23.35;;
23555;SDS011;11956;53.184;8.578;2023-02-10T18:49:01;56.72;;;22.52;;
23555;SDS011;11956;53.184;8.578;2023-02-10T18:52:01;57.42;;;23.20;;
23555;SDS011;11956;53.184;8.578;2023-02-10T18:55:02;52.10;;;22.70;;
23555;SDS011;11956;53.184;8.578;2023-02-10T18:58:04;53.13;;;22.88;;
23555;SDS011;11956;53.184;8.578;2023-02-10T19:01:06;52.03;;;22.92;;
23555;SDS011;11956;53.184;8.578;2023-02-10T19:04:11;55.03;;;23.23;;
23555;SDS011;11956;53.184;8.578;2023-02-10T19:07:12;55.55;;;23.83;;
23555;SDS011;11956;53.184;8.578;2023-02-10T19:10:13;58.72;;;24.17;;
23555;SDS011;11956;53.184;8.578;2023-02-10T19:13:14;55.72;;;24.80;;
23555;SDS011;11956;53.184;8.578;2023-02-10T19:16:15;55.78;;;24.30;;
23555;SDS011;11956;53.184;8.578;2023-02-10T19:19:16;58.63;;;24.02;;
23555;SDS011;11956;53.184;8.578;2023-02-10T19:22:17;54.00;;;25.70;;
23555;SDS011;11956;53.184;8.578;2023-02-10T19:25:18;60.70;;;24.40;;
23555;SDS011;11956;53.184;8.578;2023-02-10T19:28:19;63.38;;;26.08;;
23555;SDS011;11956;53.184;8.578;2023-02-10T19:31:20;54.78;;;23.48;;
23555;SDS011;11956;53.184;8.578;2023-02-10T19:34:21;57.47;;;24.38;;